sensor_id;sensor_type;location;lat;lon;timestamp;pressure;altitude;pressure_sealevel;temperature;humidity
45357;BME280;31092;51.924;21.448;2022-10-16T00:00:30;100459.91;;;13.43;100.00
45357;BME280;31092;51.924;21.448;2022-10-16T00:02:55;100418.41;;;13.19;100.00
45357;BME280;31092;51.924;21.448;2022-10-16T00:05:21;100451.47;;;13.37;100.00
45357;BME280;31092;51.924;21.448;2022-10-16T00:07:46;100352.09;;;12.77;100.00
45357;BME280;31092;51.924;21.448;2022-10-16T00:10:11;100332.91;;;12.64;100.00
45357;BME280;31092;51.924;21.448;2022-10-16T00:12:37;100450.69;;;13.29;100.00
45357;BME280;31092;51.924;21.448;2022-10-16T00:15:03;100417.63;;;13.10;100.00
45357;BME280;31092;51.924;21.448;2022-10-16T00:17:29;100437.69;;;13.16;100.00
45357;BME280;31092;51.924;21.448;2022-10-16T00:19:54;100384.34;;;12.79;100.00
45357;BME280;31092;51.924;21.448;2022-10-16T00:22:20;100412.97;;;12.96;100.00
45357;BME280;31092;51.924;21.448;2022-10-16T00:24:45;100427.34;;;12.97;100.00
45357;BME280;31092;51.924;21.448;2022-10-16T00:27:11;100448.41;;;13.09;100.00
45357;BME280;31092;51.924;21.448;2022-10-16T00:29:36;100474.59;;;13.09;100.00
45357;BME280;31092;51.924;21.448;2022-10-16T00:32:02;100440.19;;;12.94;100.00
45357;BME280;31092;51.924;21.448;2022-10-16T00:34:27;100446.94;;;12.99;100.00
45357;BME280;31092;51.924;21.448;2022-10-16T00:36:53;100402.97;;;12.65;100.00
45357;BME280;31092;51.924;21.448;2022-10-16T00:39:19;100353.94;;;12.37;100.00
45357;BME280;31092;51.924;21.448;2022-10-16T00:41:44;100459.59;;;12.98;100.00
45357;BME280;31092;51.924;21.448;2022-10-16T00:47:19;100427.78;;;12.69;100.00
45357;BME280;31092;51.924;21.448;2022-10-16T00:49:47;100384.63;;;12.53;100.00
45357;BME280;31092;51.924;21.448;2022-10-16T00:52:14;100431.13;;;12.79;100.00
45357;BME280;31092;51.924;21.448;2022-10-16T00:54:40;100429.81;;;12.75;100.00
45357;BME280;31092;51.924;21.448;2022-10-16T00:57:06;100454.63;;;12.79;100.00
45357;BME280;31092;51.924;21.448;2022-10-16T00:59:38;100455.47;;;12.79;100.00
45357;BME280;31092;51.924;21.448;2022-10-16T01:02:07;100452.75;;;12.79;100.00
45357;BME280;31092;51.924;21.448;2022-10-16T01:04:39;100415.50;;;12.58;100.00
45357;BME280;31092;51.924;21.448;2022-10-16T01:12:38;100391.25;;;12.42;100.00
45357;BME280;31092;51.924;21.448;2022-10-16T01:15:11;100416.88;;;12.54;100.00
45357;BME280;31092;51.924;21.448;2022-10-16T01:17:51;100375.06;;;12.34;100.00
45357;BME280;31092;51.924;21.448;2022-10-16T01:20:27;100404.38;;;12.53;100.00
45357;BME280;31092;51.924;21.448;2022-10-16T01:28:34;100364.31;;;12.26;100.00
45357;BME280;31092;51.924;21.448;2022-10-16T01:31:02;100464.56;;;12.86;100.00
45357;BME280;31092;51.924;21.448;2022-10-16T01:33:36;100461.69;;;12.88;100.00
45357;BME280;31092;51.924;21.448;2022-10-16T01:36:10;100437.91;;;12.75;100.00
45357;BME280;31092;51.924;21.448;2022-10-16T01:38:38;100377.28;;;12.38;100.00
45357;BME280;31092;51.924;21.448;2022-10-16T01:41:34;100461.69;;;12.88;100.00
45357;BME280;31092;51.924;21.448;2022-10-16T01:44:06;100387.88;;;12.40;100.00
45357;BME280;31092;51.924;21.448;2022-10-16T01:46:36;100465.25;;;12.80;100.00
45357;BME280;31092;51.924;21.448;2022-10-16T01:49:03;100388.91;;;12.39;100.00
45357;BME280;31092;51.924;21.448;2022-10-16T01:51:30;100399.38;;;12.34;100.00
45357;BME280;31092;51.924;21.448;2022-10-16T01:53:59;100487.22;;;12.85;100.00
45357;BME280;31092;51.924;21.448;2022-10-16T01:56:27;100409.53;;;12.32;100.00
45357;BME280;31092;51.924;21.448;2022-10-16T01:58:58;100389.97;;;12.21;100.00
45357;BME280;31092;51.924;21.448;2022-10-16T02:01:30;100431.91;;;12.49;100.00
45357;BME280;31092;51.924;21.448;2022-10-16T02:03:57;100498.31;;;12.90;100.00
45357;BME280;31092;51.924;21.448;2022-10-16T02:06:24;100473.72;;;12.77;100.00
45357;BME280;31092;51.924;21.448;2022-10-16T02:08:51;100424.84;;;12.48;100.00
45357;BME280;31092;51.924;21.448;2022-10-16T02:11:16;100440.00;;;12.57;100.00
45357;BME280;31092;51.924;21.448;2022-10-16T02:13:45;100439.16;;;12.56;100.00
45357;BME280;31092;51.924;21.448;2022-10-16T02:16:13;100398.72;;;12.32;100.00
45357;BME280;31092;51.924;21.448;2022-10-16T02:18:40;100428.88;;;12.52;100.00
45357;BME280;31092;51.924;21.448;2022-10-16T02:21:28;100444.38;;;12.58;100.00
45357;BME280;31092;51.924;21.448;2022-10-16T02:29:07;100512.34;;;12.94;100.00
45357;BME280;31092;51.924;21.448;2022-10-16T02:31:39;100487.38;;;12.84;100.00
45357;BME280;31092;51.924;21.448;2022-10-16T02:34:06;100486.38;;;12.77;100.00
45357;BME280;31092;51.924;21.448;2022-10-16T02:36:34;100407.66;;;12.32;100.00
45357;BME280;31092;51.924;21.448;2022-10-16T02:39:02;100456.22;;;12.57;100.00
45357;BME280;31092;51.924;21.448;2022-10-16T02:41:29;100393.19;;;12.09;100.00
45357;BME280;31092;51.924;21.448;2022-10-16T02:43:55;100476.66;;;12.51;100.00
45357;BME280;31092;51.924;21.448;2022-10-16T02:46:21;100465.72;;;12.36;100.00
45357;BME280;31092;51.924;21.448;2022-10-16T02:48:46;100492.06;;;12.42;100.00
45357;BME280;31092;51.924;21.448;2022-10-16T02:51:12;100491.72;;;12.37;100.00
45357;BME280;31092;51.924;21.448;2022-10-16T02:53:38;100462.22;;;12.11;100.00
45357;BME280;31092;51.924;21.448;2022-10-16T02:56:03;100500.34;;;12.33;100.00
45357;BME280;31092;51.924;21.448;2022-10-16T02:58:29;100469.28;;;12.12;100.00
45357;BME280;31092;51.924;21.448;2022-10-16T03:00:55;100499.31;;;12.26;100.00
45357;BME280;31092;51.924;21.448;2022-10-16T03:03:20;100412.44;;;11.73;100.00
45357;BME280;31092;51.924;21.448;2022-10-16T03:05:46;100507.63;;;12.24;100.00
45357;BME280;31092;51.924;21.448;2022-10-16T03:08:12;100470.66;;;12.08;100.00
45357;BME280;31092;51.924;21.448;2022-10-16T03:10:38;100434.56;;;11.85;100.00
45357;BME280;31092;51.924;21.448;2022-10-16T03:13:03;100498.13;;;12.20;100.00
45357;BME280;31092;51.924;21.448;2022-10-16T03:15:29;100492.09;;;12.18;100.00
45357;BME280;31092;51.924;21.448;2022-10-16T03:17:58;100494.78;;;12.18;100.00
45357;BME280;31092;51.924;21.448;2022-10-16T03:20:24;100506.25;;;12.28;100.00
45357;BME280;31092;51.924;21.448;2022-10-16T03:22:49;100504.22;;;12.22;100.00
45357;BME280;31092;51.924;21.448;2022-10-16T03:25:15;100435.38;;;11.77;100.00
45357;BME280;31092;51.924;21.448;2022-10-16T03:27:41;100524.66;;;12.25;100.00
45357;BME280;31092;51.924;21.448;2022-10-16T03:30:07;100468.13;;;11.90;100.00
45357;BME280;31092;51.924;21.448;2022-10-16T03:32:33;100536.81;;;12.29;100.00
45357;BME280;31092;51.924;21.448;2022-10-16T03:34:58;100508.13;;;12.11;100.00
45357;BME280;31092;51.924;21.448;2022-10-16T03:37:24;100504.72;;;12.09;100.00
45357;BME280;31092;51.924;21.448;2022-10-16T03:39:50;100535.28;;;12.26;100.00
45357;BME280;31092;51.924;21.448;2022-10-16T03:42:16;100456.47;;;11.82;100.00
45357;BME280;31092;51.924;21.448;2022-10-16T03:44:41;100530.91;;;12.25;100.00
45357;BME280;31092;51.924;21.448;2022-10-16T03:47:07;100552.50;;;12.33;100.00
45357;BME280;31092;51.924;21.448;2022-10-16T03:49:33;100453.91;;;11.80;100.00
45357;BME280;31092;51.924;21.448;2022-10-16T03:51:59;100454.09;;;11.79;100.00
45357;BME280;31092;51.924;21.448;2022-10-16T03:54:24;100535.28;;;12.26;100.00
45357;BME280;31092;51.924;21.448;2022-10-16T03:56:50;100515.38;;;12.19;100.00
45357;BME280;31092;51.924;21.448;2022-10-16T03:59:24;100485.34;;;11.97;100.00
45357;BME280;31092;51.924;21.448;2022-10-16T04:01:50;100536.97;;;12.27;100.00
45357;BME280;31092;51.924;21.448;2022-10-16T04:04:16;100461.56;;;11.85;100.00
45357;BME280;31092;51.924;21.448;2022-10-16T04:06:41;100460.34;;;11.79;100.00
45357;BME280;31092;51.924;21.448;2022-10-16T04:09:07;100434.88;;;11.65;100.00
45357;BME280;31092;51.924;21.448;2022-10-16T04:11:32;100475.56;;;11.88;100.00
45357;BME280;31092;51.924;21.448;2022-10-16T04:13:58;100537.47;;;12.22;100.00
45357;BME280;31092;51.924;21.448;2022-10-16T04:16:23;100535.94;;;12.20;100.00
45357;BME280;31092;51.924;21.448;2022-10-16T04:18:49;100475.72;;;11.87;100.00
45357;BME280;31092;51.924;21.448;2022-10-16T04:21:14;100470.28;;;11.79;100.00
45357;BME280;31092;51.924;21.448;2022-10-16T04:23:42;100501.53;;;11.89;100.00
45357;BME280;31092;51.924;21.448;2022-10-16T04:26:07;100538.81;;;12.18;100.00
45357;BME280;31092;51.924;21.448;2022-10-16T04:28:33;100560.94;;;12.30;100.00
45357;BME280;31092;51.924;21.448;2022-10-16T04:30:58;100459.31;;;11.72;100.00
45357;BME280;31092;51.924;21.448;2022-10-16T04:33:24;100542.22;;;12.20;100.00
45357;BME280;31092;51.924;21.448;2022-10-16T04:35:56;100491.59;;;11.90;100.00
45357;BME280;31092;51.924;21.448;2022-10-16T04:38:22;100474.66;;;11.80;100.00
45357;BME280;31092;51.924;21.448;2022-10-16T04:40:48;100563.97;;;12.27;100.00
45357;BME280;31092;51.924;21.448;2022-10-16T04:43:13;100567.38;;;12.21;100.00
45357;BME280;31092;51.924;21.448;2022-10-16T04:45:39;100581.19;;;12.26;100.00
45357;BME280;31092;51.924;21.448;2022-10-16T04:48:04;100544.38;;;12.09;100.00
45357;BME280;31092;51.924;21.448;2022-10-16T04:50:30;100495.09;;;11.74;100.00
45357;BME280;31092;51.924;21.448;2022-10-16T04:52:56;100415.44;;;11.29;100.00
45357;BME280;31092;51.924;21.448;2022-10-16T04:55:21;100528.53;;;11.97;100.00
45357;BME280;31092;51.924;21.448;2022-10-16T04:57:47;100566.16;;;12.15;100.00
45357;BME280;31092;51.924;21.448;2022-10-16T05:00:12;100553.00;;;12.12;100.00
45357;BME280;31092;51.924;21.448;2022-10-16T05:02:38;100570.41;;;12.18;100.00
45357;BME280;31092;51.924;21.448;2022-10-16T05:05:04;100572.59;;;12.14;100.00
45357;BME280;31092;51.924;21.448;2022-10-16T05:07:32;100558.56;;;11.94;100.00
45357;BME280;31092;51.924;21.448;2022-10-16T05:09:57;100512.44;;;11.63;100.00
45357;BME280;31092;51.924;21.448;2022-10-16T05:12:23;100586.41;;;12.11;100.00
45357;BME280;31092;51.924;21.448;2022-10-16T05:14:49;100568.69;;;11.92;100.00
45357;BME280;31092;51.924;21.448;2022-10-16T05:17:14;100584.19;;;11.98;100.00
45357;BME280;31092;51.924;21.448;2022-10-16T05:19:40;100529.28;;;11.65;100.00
45357;BME280;31092;51.924;21.448;2022-10-16T05:22:05;100515.81;;;11.65;100.00
45357;BME280;31092;51.924;21.448;2022-10-16T05:24:31;100569.19;;;11.96;100.00
45357;BME280;31092;51.924;21.448;2022-10-16T05:26:57;100511.25;;;11.58;100.00
45357;BME280;31092;51.924;21.448;2022-10-16T05:29:31;100523.06;;;11.73;100.00
45357;BME280;31092;51.924;21.448;2022-10-16T05:31:57;100516.31;;;11.69;100.00
45357;BME280;31092;51.924;21.448;2022-10-16T05:34:22;100575.94;;;12.08;100.00
45357;BME280;31092;51.924;21.448;2022-10-16T05:36:48;100508.72;;;11.64;100.00
45357;BME280;31092;51.924;21.448;2022-10-16T05:39:15;100564.50;;;12.06;100.00
45357;BME280;31092;51.924;21.448;2022-10-16T05:41:40;100593.34;;;12.22;100.00
45357;BME280;31092;51.924;21.448;2022-10-16T05:44:06;100519.19;;;11.75;100.00
45357;BME280;31092;51.924;21.448;2022-10-16T05:46:32;100606.34;;;12.27;100.00
45357;BME280;31092;51.924;21.448;2022-10-16T05:48:58;100615.97;;;12.29;100.00
45357;BME280;31092;51.924;21.448;2022-10-16T05:51:24;100614.63;;;12.33;100.00
45357;BME280;31092;51.924;21.448;2022-10-16T05:53:51;100623.59;;;12.42;100.00
45357;BME280;31092;51.924;21.448;2022-10-16T05:56:17;100618.84;;;12.44;100.00
45357;BME280;31092;51.924;21.448;2022-10-16T05:58:43;100535.78;;;11.97;100.00
45357;BME280;31092;51.924;21.448;2022-10-16T06:01:14;100527.00;;;11.95;100.00
45357;BME280;31092;51.924;21.448;2022-10-16T06:03:40;100615.31;;;12.43;100.00
45357;BME280;31092;51.924;21.448;2022-10-16T06:06:16;100623.72;;;12.49;100.00
45357;BME280;31092;51.924;21.448;2022-10-16T06:08:43;100542.88;;;11.98;100.00
45357;BME280;31092;51.924;21.448;2022-10-16T06:11:13;100557.22;;;12.07;100.00
45357;BME280;31092;51.924;21.448;2022-10-16T06:13:39;100547.28;;;12.07;100.00
45357;BME280;31092;51.924;21.448;2022-10-16T06:16:08;100603.50;;;12.53;100.00
45357;BME280;31092;51.924;21.448;2022-10-16T06:18:35;100640.47;;;12.68;100.00
45357;BME280;31092;51.924;21.448;2022-10-16T06:21:08;100550.31;;;12.29;100.00
45357;BME280;31092;51.924;21.448;2022-10-16T06:23:34;100620.03;;;12.74;100.00
45357;BME280;31092;51.924;21.448;2022-10-16T06:26:11;100631.81;;;12.89;100.00
45357;BME280;31092;51.924;21.448;2022-10-16T06:28:39;100591.13;;;12.75;100.00
45357;BME280;31092;51.924;21.448;2022-10-16T06:31:10;100616.91;;;13.02;100.00
45357;BME280;31092;51.924;21.448;2022-10-16T06:33:37;100637.69;;;13.17;100.00
45357;BME280;31092;51.924;21.448;2022-10-16T06:36:06;100640.72;;;13.31;100.00
45357;BME280;31092;51.924;21.448;2022-10-16T06:38:32;100633.28;;;13.33;100.00
45357;BME280;31092;51.924;21.448;2022-10-16T06:40:58;100622.09;;;13.36;100.00
45357;BME280;31092;51.924;21.448;2022-10-16T06:43:23;100646.41;;;13.44;100.00
45357;BME280;31092;51.924;21.448;2022-10-16T06:45:57;100632.03;;;13.44;100.00
45357;BME280;31092;51.924;21.448;2022-10-16T06:48:23;100638.28;;;13.52;100.00
45357;BME280;31092;51.924;21.448;2022-10-16T06:53:30;100642.47;;;13.55;100.00
45357;BME280;31092;51.924;21.448;2022-10-16T06:55:57;100566.03;;;13.13;100.00
45357;BME280;31092;51.924;21.448;2022-10-16T06:58:25;100637.06;;;13.55;100.00
45357;BME280;31092;51.924;21.448;2022-10-16T07:00:56;100641.75;;;13.69;100.00
45357;BME280;31092;51.924;21.448;2022-10-16T07:03:22;100626.53;;;13.68;100.00
45357;BME280;31092;51.924;21.448;2022-10-16T07:05:54;100574.25;;;13.36;100.00
45357;BME280;31092;51.924;21.448;2022-10-16T07:08:19;100651.44;;;13.95;100.00
45357;BME280;31092;51.924;21.448;2022-10-16T07:10:45;100629.78;;;13.95;100.00
45357;BME280;31092;51.924;21.448;2022-10-16T07:13:11;100670.72;;;14.23;100.00
45357;BME280;31092;51.924;21.448;2022-10-16T07:15:39;100623.13;;;14.05;100.00
45357;BME280;31092;51.924;21.448;2022-10-16T07:18:05;100593.84;;;14.01;100.00
45357;BME280;31092;51.924;21.448;2022-10-16T07:20:30;100673.91;;;14.57;100.00
45357;BME280;31092;51.924;21.448;2022-10-16T07:22:56;100645.78;;;14.58;100.00
45357;BME280;31092;51.924;21.448;2022-10-16T07:25:21;100648.13;;;14.61;100.00
45357;BME280;31092;51.924;21.448;2022-10-16T07:27:50;100653.31;;;14.71;100.00
45357;BME280;31092;51.924;21.448;2022-10-16T07:30:16;100638.72;;;14.72;100.00
45357;BME280;31092;51.924;21.448;2022-10-16T07:32:50;100608.75;;;14.51;100.00
45357;BME280;31092;51.924;21.448;2022-10-16T07:35:22;100667.09;;;14.84;100.00
45357;BME280;31092;51.924;21.448;2022-10-16T07:37:48;100676.66;;;14.95;100.00
45357;BME280;31092;51.924;21.448;2022-10-16T07:40:13;100673.69;;;15.05;100.00
45357;BME280;31092;51.924;21.448;2022-10-16T07:42:39;100677.72;;;15.09;100.00
45357;BME280;31092;51.924;21.448;2022-10-16T07:45:48;100692.22;;;15.16;100.00
45357;BME280;31092;51.924;21.448;2022-10-16T07:48:17;100604.75;;;14.61;100.00
45357;BME280;31092;51.924;21.448;2022-10-16T07:50:59;100686.31;;;15.13;100.00
45357;BME280;31092;51.924;21.448;2022-10-16T07:53:26;100636.66;;;14.74;100.00
45357;BME280;31092;51.924;21.448;2022-10-16T07:55:52;100674.31;;;15.07;100.00
45357;BME280;31092;51.924;21.448;2022-10-16T07:58:18;100644.84;;;14.89;100.00
45357;BME280;31092;51.924;21.448;2022-10-16T08:00:43;100683.13;;;15.09;100.00
45357;BME280;31092;51.924;21.448;2022-10-16T08:03:48;100667.34;;;15.13;100.00
45357;BME280;31092;51.924;21.448;2022-10-16T08:06:24;100672.41;;;15.16;100.00
45357;BME280;31092;51.924;21.448;2022-10-16T08:11:42;100659.72;;;15.08;100.00
45357;BME280;31092;51.924;21.448;2022-10-16T08:14:28;100693.44;;;15.28;100.00
45357;BME280;31092;51.924;21.448;2022-10-16T08:16:56;100648.03;;;15.22;100.00
45357;BME280;31092;51.924;21.448;2022-10-16T08:19:54;100646.19;;;15.23;100.00
45357;BME280;31092;51.924;21.448;2022-10-16T08:25:41;100576.63;;;15.37;100.00
45357;BME280;31092;51.924;21.448;2022-10-16T08:28:09;100665.66;;;16.22;100.00
45357;BME280;31092;51.924;21.448;2022-10-16T08:30:35;100678.81;;;16.61;100.00
45357;BME280;31092;51.924;21.448;2022-10-16T08:33:01;100593.22;;;16.57;100.00
45357;BME280;31092;51.924;21.448;2022-10-16T08:35:26;100600.81;;;16.83;100.00
45357;BME280;31092;51.924;21.448;2022-10-16T08:37:52;100612.03;;;17.02;100.00
45357;BME280;31092;51.924;21.448;2022-10-16T08:40:24;100665.25;;;17.45;100.00
45357;BME280;31092;51.924;21.448;2022-10-16T08:46:07;100678.28;;;17.85;100.00
45357;BME280;31092;51.924;21.448;2022-10-16T08:48:44;100680.03;;;17.99;100.00
45357;BME280;31092;51.924;21.448;2022-10-16T08:51:18;100676.28;;;18.13;100.00
45357;BME280;31092;51.924;21.448;2022-10-16T08:53:49;100627.63;;;18.04;100.00
45357;BME280;31092;51.924;21.448;2022-10-16T08:56:15;100676.63;;;18.65;100.00
45357;BME280;31092;51.924;21.448;2022-10-16T08:58:41;100674.16;;;18.77;100.00
45357;BME280;31092;51.924;21.448;2022-10-16T09:01:14;100682.34;;;18.77;100.00
45357;BME280;31092;51.924;21.448;2022-10-16T09:04:00;100665.50;;;18.66;100.00
45357;BME280;31092;51.924;21.448;2022-10-16T09:06:35;100664.88;;;18.58;100.00
45357;BME280;31092;51.924;21.448;2022-10-16T09:10:08;100658.56;;;18.44;100.00
45357;BME280;31092;51.924;21.448;2022-10-16T09:15:40;100581.25;;;17.84;100.00
45357;BME280;31092;51.924;21.448;2022-10-16T09:18:15;100606.84;;;17.96;100.00
45357;BME280;31092;51.924;21.448;2022-10-16T09:23:30;100653.53;;;18.48;100.00
45357;BME280;31092;51.924;21.448;2022-10-16T09:25:58;100604.16;;;18.09;100.00
45357;BME280;31092;51.924;21.448;2022-10-16T09:28:26;100611.28;;;18.10;100.00
45357;BME280;31092;51.924;21.448;2022-10-16T09:30:51;100617.16;;;18.07;100.00
45357;BME280;31092;51.924;21.448;2022-10-16T09:33:23;100612.09;;;17.98;100.00
45357;BME280;31092;51.924;21.448;2022-10-16T09:35:53;100686.25;;;18.41;100.00
45357;BME280;31092;51.924;21.448;2022-10-16T09:38:31;100694.19;;;18.42;100.00
45357;BME280;31092;51.924;21.448;2022-10-16T09:41:14;100687.06;;;18.41;100.00
45357;BME280;31092;51.924;21.448;2022-10-16T09:46:39;100693.19;;;18.57;100.00
45357;BME280;31092;51.924;21.448;2022-10-16T09:49:22;100628.75;;;18.29;100.00
45357;BME280;31092;51.924;21.448;2022-10-16T09:51:48;100688.44;;;18.79;100.00
45357;BME280;31092;51.924;21.448;2022-10-16T09:54:20;100614.50;;;18.54;100.00
45357;BME280;31092;51.924;21.448;2022-10-16T09:56:46;100659.66;;;18.76;100.00
45357;BME280;31092;51.924;21.448;2022-10-16T09:59:21;100602.31;;;18.30;100.00
45357;BME280;31092;51.924;21.448;2022-10-16T10:01:55;100665.91;;;18.70;100.00
45357;BME280;31092;51.924;21.448;2022-10-16T10:04:23;100657.56;;;18.85;100.00
45357;BME280;31092;51.924;21.448;2022-10-16T10:06:51;100662.59;;;19.08;100.00
45357;BME280;31092;51.924;21.448;2022-10-16T10:09:25;100650.13;;;19.45;100.00
45357;BME280;31092;51.924;21.448;2022-10-16T10:11:59;100631.78;;;19.79;100.00
45357;BME280;31092;51.924;21.448;2022-10-16T10:14:40;100582.88;;;19.51;100.00
45357;BME280;31092;51.924;21.448;2022-10-16T10:38:46;100662.22;;;19.89;100.00
45357;BME280;31092;51.924;21.448;2022-10-16T10:52:47;100589.19;;;19.45;100.00
45357;BME280;31092;51.924;21.448;2022-10-16T10:58:34;100625.66;;;19.77;100.00
45357;BME280;31092;51.924;21.448;2022-10-16T11:01:25;100639.19;;;19.65;100.00
45357;BME280;31092;51.924;21.448;2022-10-16T11:06:59;100555.31;;;18.94;100.00
45357;BME280;31092;51.924;21.448;2022-10-16T11:09:34;100631.66;;;19.41;100.00
45357;BME280;31092;51.924;21.448;2022-10-16T11:12:27;100581.31;;;19.10;100.00
45357;BME280;31092;51.924;21.448;2022-10-16T11:15:31;100639.44;;;19.44;100.00
45357;BME280;31092;51.924;21.448;2022-10-16T11:18:06;100584.25;;;19.15;100.00
45357;BME280;31092;51.924;21.448;2022-10-16T11:20:41;100579.63;;;19.16;100.00
45357;BME280;31092;51.924;21.448;2022-10-16T11:23:29;100581.25;;;19.30;100.00
45357;BME280;31092;51.924;21.448;2022-10-16T11:26:26;100559.81;;;19.33;100.00
45357;BME280;31092;51.924;21.448;2022-10-16T11:28:56;100628.44;;;19.70;100.00
45357;BME280;31092;51.924;21.448;2022-10-16T11:34:21;100621.50;;;19.61;100.00
45357;BME280;31092;51.924;21.448;2022-10-16T11:37:12;100572.84;;;19.31;100.00
45357;BME280;31092;51.924;21.448;2022-10-16T11:39:40;100615.44;;;19.66;100.00
45357;BME280;31092;51.924;21.448;2022-10-16T11:42:22;100594.00;;;19.63;100.00
45357;BME280;31092;51.924;21.448;2022-10-16T11:45:02;100563.72;;;19.57;100.00
45357;BME280;31092;51.924;21.448;2022-10-16T11:47:47;100639.03;;;19.98;100.00
45357;BME280;31092;51.924;21.448;2022-10-16T11:55:37;100614.47;;;19.92;100.00
45357;BME280;31092;51.924;21.448;2022-10-16T11:58:08;100622.25;;;19.88;100.00
45357;BME280;31092;51.924;21.448;2022-10-16T12:03:29;100641.69;;;20.18;100.00
45357;BME280;31092;51.924;21.448;2022-10-16T12:08:59;100658.50;;;20.60;100.00
45357;BME280;31092;51.924;21.448;2022-10-16T12:17:00;100595.72;;;19.95;100.00
45357;BME280;31092;51.924;21.448;2022-10-16T12:19:30;100584.06;;;19.75;100.00
45357;BME280;31092;51.924;21.448;2022-10-16T12:21:58;100580.34;;;19.63;100.00
45357;BME280;31092;51.924;21.448;2022-10-16T12:24:38;100627.00;;;20.06;100.00
45357;BME280;31092;51.924;21.448;2022-10-16T12:27:20;100582.50;;;19.92;100.00
45357;BME280;31092;51.924;21.448;2022-10-16T12:29:47;100598.13;;;20.17;100.00
45357;BME280;31092;51.924;21.448;2022-10-16T12:34:54;100587.28;;;20.03;100.00
45357;BME280;31092;51.924;21.448;2022-10-16T12:39:53;100623.94;;;20.59;100.00
45357;BME280;31092;51.924;21.448;2022-10-16T12:42:32;100589.78;;;20.37;100.00
45357;BME280;31092;51.924;21.448;2022-10-16T12:44:59;100560.50;;;20.12;100.00
45357;BME280;31092;51.924;21.448;2022-10-16T12:49:56;100558.06;;;19.97;100.00
45357;BME280;31092;51.924;21.448;2022-10-16T12:52:35;100641.25;;;20.21;100.00
45357;BME280;31092;51.924;21.448;2022-10-16T12:55:03;100628.94;;;19.99;100.00
45357;BME280;31092;51.924;21.448;2022-10-16T13:17:08;100635.03;;;20.01;100.00
45357;BME280;31092;51.924;21.448;2022-10-16T13:28:17;100617.28;;;19.78;100.00
45357;BME280;31092;51.924;21.448;2022-10-16T13:30:55;100642.69;;;19.85;100.00
45357;BME280;31092;51.924;21.448;2022-10-16T13:33:35;100667.47;;;19.91;100.00
45357;BME280;31092;51.924;21.448;2022-10-16T13:36:02;100656.16;;;19.80;100.00
45357;BME280;31092;51.924;21.448;2022-10-16T13:38:31;100649.06;;;19.66;100.00
45357;BME280;31092;51.924;21.448;2022-10-16T13:41:01;100676.19;;;19.68;100.00
45357;BME280;31092;51.924;21.448;2022-10-16T13:43:34;100649.72;;;19.42;100.00
45357;BME280;31092;51.924;21.448;2022-10-16T13:46:21;100667.00;;;19.35;100.00
45357;BME280;31092;51.924;21.448;2022-10-16T13:49:04;100626.06;;;18.96;100.00
45357;BME280;31092;51.924;21.448;2022-10-16T13:51:31;100619.75;;;18.88;100.00
45357;BME280;31092;51.924;21.448;2022-10-16T13:53:57;100690.94;;;19.13;100.00
45357;BME280;31092;51.924;21.448;2022-10-16T13:56:31;100608.63;;;18.57;100.00
45357;BME280;31092;51.924;21.448;2022-10-16T13:59:05;100599.38;;;18.45;100.00
45357;BME280;31092;51.924;21.448;2022-10-16T14:01:34;100615.97;;;18.43;100.00
45357;BME280;31092;51.924;21.448;2022-10-16T14:04:08;100692.19;;;18.84;100.00
45357;BME280;31092;51.924;21.448;2022-10-16T14:06:35;100641.78;;;18.47;100.00
45357;BME280;31092;51.924;21.448;2022-10-16T14:09:07;100664.66;;;18.59;100.00
45357;BME280;31092;51.924;21.448;2022-10-16T14:14:41;100699.50;;;18.71;100.00
45357;BME280;31092;51.924;21.448;2022-10-16T14:17:18;100628.31;;;18.26;100.00
45357;BME280;31092;51.924;21.448;2022-10-16T14:19:48;100620.13;;;18.19;100.00
45357;BME280;31092;51.924;21.448;2022-10-16T14:24:56;100695.94;;;18.50;100.00
45357;BME280;31092;51.924;21.448;2022-10-16T14:27:36;100697.38;;;18.53;100.00
45357;BME280;31092;51.924;21.448;2022-10-16T14:30:18;100648.22;;;18.19;100.00
45357;BME280;31092;51.924;21.448;2022-10-16T14:36:10;100714.56;;;18.40;100.00
45357;BME280;31092;51.924;21.448;2022-10-16T14:38:41;100631.16;;;17.91;100.00
45357;BME280;31092;51.924;21.448;2022-10-16T14:41:09;100705.72;;;18.31;100.00
45357;BME280;31092;51.924;21.448;2022-10-16T14:43:39;100651.75;;;18.00;100.00
45357;BME280;31092;51.924;21.448;2022-10-16T14:48:43;100702.34;;;18.23;100.00
45357;BME280;31092;51.924;21.448;2022-10-16T14:51:19;100702.75;;;18.19;100.00
45357;BME280;31092;51.924;21.448;2022-10-16T14:53:49;100712.59;;;18.21;100.00
45357;BME280;31092;51.924;21.448;2022-10-16T14:56:41;100716.16;;;18.21;100.00
45357;BME280;31092;51.924;21.448;2022-10-16T14:59:14;100649.53;;;17.76;100.00
45357;BME280;31092;51.924;21.448;2022-10-16T15:01:43;100722.47;;;18.15;100.00
45357;BME280;31092;51.924;21.448;2022-10-16T15:04:11;100665.22;;;17.74;100.00
45357;BME280;31092;51.924;21.448;2022-10-16T15:06:40;100666.25;;;17.73;100.00
45357;BME280;31092;51.924;21.448;2022-10-16T15:09:06;100700.13;;;17.91;100.00
45357;BME280;31092;51.924;21.448;2022-10-16T15:11:33;100658.22;;;17.64;100.00